createdAt,value
2018-05-26T00:00:12.630Z,23.27
2018-05-26T00:01:16.017Z,23.27
2018-05-26T00:02:19.336Z,23.26
2018-05-26T00:03:22.717Z,23.25
2018-05-26T00:04:26.059Z,23.25
2018-05-26T00:05:29.383Z,23.24
2018-05-26T00:06:32.708Z,23.23
2018-05-26T00:07:36.046Z,23.22
2018-05-26T00:08:39.423Z,23.22
2018-05-26T00:09:42.768Z,23.21
2018-05-26T00:10:46.114Z,23.20
2018-05-26T00:11:49.523Z,23.20
2018-05-26T00:12:52.851Z,23.19
2018-05-26T00:13:56.219Z,23.18
2018-05-26T00:14:59.538Z,23.17
2018-05-26T00:16:02.876Z,23.16
2018-05-26T00:17:06.218Z,23.15
2018-05-26T00:18:09.567Z,23.15
2018-05-26T00:19:12.947Z,23.14
2018-05-26T00:20:16.281Z,23.13
2018-05-26T00:21:19.615Z,23.13
2018-05-26T00:22:24.606Z,23.12
2018-05-26T00:23:27.928Z,23.09
2018-05-26T00:24:31.306Z,23.09
2018-05-26T00:25:34.688Z,23.08
2018-05-26T00:26:37.964Z,23.08
2018-05-26T00:27:41.295Z,23.07
2018-05-26T00:28:44.634Z,23.06
2018-05-26T00:29:48.039Z,23.05
2018-05-26T00:30:51.369Z,23.05
2018-05-26T00:31:54.711Z,23.03
2018-05-26T00:32:58.051Z,23.03
2018-05-26T00:34:01.366Z,23.03
2018-05-26T00:35:04.771Z,23.02
2018-05-26T00:36:08.102Z,23.00
2018-05-26T00:37:11.828Z,22.99
2018-05-26T00:38:15.143Z,22.99
2018-05-26T00:39:18.514Z,22.98
2018-05-26T00:40:22.111Z,22.97
2018-05-26T00:41:25.456Z,22.96
2018-05-26T00:42:28.807Z,22.95
2018-05-26T00:43:32.148Z,22.94
2018-05-26T00:44:35.492Z,22.92
2018-05-26T00:45:39.072Z,22.92
2018-05-26T00:46:42.590Z,22.90
2018-05-26T00:47:45.914Z,22.90
2018-05-26T00:48:49.255Z,22.89
2018-05-26T00:49:52.578Z,22.88
2018-05-26T00:50:55.962Z,22.87
2018-05-26T00:51:59.294Z,22.87
2018-05-26T00:53:02.623Z,22.86
2018-05-26T00:54:06.071Z,22.85
2018-05-26T00:55:09.475Z,22.84
2018-05-26T00:56:12.854Z,22.83
2018-05-26T00:57:16.183Z,22.82
2018-05-26T00:58:19.586Z,22.82
2018-05-26T00:59:23.030Z,22.81
2018-05-26T01:00:26.369Z,22.80
2018-05-26T01:01:29.735Z,22.79
2018-05-26T01:02:33.055Z,22.78
2018-05-26T01:03:36.391Z,22.78
2018-05-26T01:04:39.725Z,22.77
2018-05-26T01:05:43.063Z,22.76
2018-05-26T01:06:46.471Z,22.75
2018-05-26T01:07:49.799Z,22.74
2018-05-26T01:08:53.121Z,22.73
2018-05-26T01:09:56.463Z,22.72
2018-05-26T01:10:59.796Z,22.71
2018-05-26T01:12:03.160Z,22.70
2018-05-26T01:13:06.488Z,22.69
2018-05-26T01:14:09.824Z,22.68
2018-05-26T01:15:13.174Z,22.67
2018-05-26T01:16:16.562Z,22.66
2018-05-26T01:17:19.931Z,22.65
2018-05-26T01:18:23.262Z,22.64
2018-05-26T01:19:26.586Z,22.63
2018-05-26T01:20:29.916Z,22.62
2018-05-26T01:21:33.556Z,22.61
2018-05-26T01:22:36.925Z,22.60
2018-05-26T01:23:40.238Z,22.59
2018-05-26T01:24:43.611Z,22.58
2018-05-26T01:25:46.960Z,22.57
2018-05-26T01:26:50.294Z,22.57
2018-05-26T01:27:53.655Z,22.56
2018-05-26T01:28:56.980Z,22.55
2018-05-26T01:30:00.324Z,22.54
2018-05-26T01:31:03.650Z,22.54
2018-05-26T01:32:06.977Z,22.52
2018-05-26T01:33:10.358Z,22.52
2018-05-26T01:34:13.690Z,22.51
2018-05-26T01:35:17.011Z,22.50
2018-05-26T01:36:20.625Z,22.50
2018-05-26T01:37:23.942Z,22.49
2018-05-26T01:38:27.579Z,22.49
2018-05-26T01:39:30.902Z,22.47
2018-05-26T01:40:34.602Z,22.47
2018-05-26T01:41:37.946Z,22.45
2018-05-26T01:42:41.266Z,22.45
2018-05-26T01:43:44.645Z,22.44
2018-05-26T01:44:47.975Z,22.44
2018-05-26T01:45:51.343Z,22.43
2018-05-26T01:46:54.776Z,22.42
2018-05-26T01:47:58.095Z,22.42
2018-05-26T01:49:01.452Z,22.41
2018-05-26T01:50:04.779Z,22.40
2018-05-26T01:51:08.119Z,22.39
2018-05-26T01:52:11.446Z,22.38
2018-05-26T01:53:14.799Z,22.37
2018-05-26T01:54:18.156Z,22.36
2018-05-26T01:55:21.483Z,22.36
2018-05-26T01:56:24.833Z,22.35
2018-05-26T01:57:28.162Z,22.35
2018-05-26T01:58:31.515Z,22.35
2018-05-26T01:59:34.889Z,22.33
2018-05-26T02:00:38.220Z,22.33
2018-05-26T02:01:41.559Z,22.32
2018-05-26T02:02:44.907Z,22.32
2018-05-26T02:03:48.259Z,22.32
2018-05-26T02:04:51.627Z,22.30
2018-05-26T02:05:54.955Z,22.31
2018-05-26T02:06:58.372Z,22.30
2018-05-26T02:08:01.714Z,22.30
2018-05-26T02:09:05.048Z,22.29
2018-05-26T02:10:08.524Z,22.29
2018-05-26T02:11:11.869Z,22.28
2018-05-26T02:12:15.221Z,22.28
2018-05-26T02:13:18.534Z,22.27
2018-05-26T02:14:21.968Z,22.26
2018-05-26T02:15:25.319Z,22.26
2018-05-26T02:16:28.653Z,22.25
2018-05-26T02:17:31.975Z,22.24
2018-05-26T02:18:35.331Z,22.24
2018-05-26T02:19:38.668Z,22.24
2018-05-26T02:20:42.038Z,22.23
2018-05-26T02:21:45.381Z,22.22
2018-05-26T02:22:48.727Z,22.22
2018-05-26T02:23:52.065Z,22.21
2018-05-26T02:24:55.395Z,22.21
2018-05-26T02:25:58.769Z,22.20
2018-05-26T02:27:02.112Z,22.20
2018-05-26T02:28:05.431Z,22.19
2018-05-26T02:29:08.781Z,22.19
2018-05-26T02:30:12.105Z,22.18
2018-05-26T02:31:15.633Z,22.16
2018-05-26T02:32:18.979Z,22.15
2018-05-26T02:33:22.325Z,22.16
2018-05-26T02:34:25.649Z,22.15
2018-05-26T02:35:29.055Z,22.14
2018-05-26T02:36:32.415Z,22.13
2018-05-26T02:37:35.758Z,22.13
2018-05-26T02:38:39.067Z,22.12
2018-05-26T02:39:42.407Z,22.12
2018-05-26T02:40:45.865Z,22.11
2018-05-26T02:41:49.238Z,22.11
2018-05-26T02:42:52.588Z,22.11
2018-05-26T02:43:55.903Z,22.10
2018-05-26T02:44:59.222Z,22.10
2018-05-26T02:46:02.554Z,22.08
2018-05-26T02:47:05.951Z,22.09
2018-05-26T02:48:09.278Z,22.08
2018-05-26T02:49:12.617Z,22.08
2018-05-26T02:50:15.947Z,22.06
2018-05-26T02:51:19.291Z,22.06
2018-05-26T02:52:22.634Z,22.05
2018-05-26T02:53:25.983Z,22.05
2018-05-26T02:54:29.322Z,22.04
2018-05-26T02:55:32.641Z,22.03
2018-05-26T02:56:35.966Z,22.03
2018-05-26T02:57:39.496Z,22.02
2018-05-26T02:58:42.806Z,22.02
2018-05-26T02:59:46.175Z,22.01
2018-05-26T03:00:49.686Z,22.00
2018-05-26T03:01:53.035Z,22.00
2018-05-26T03:02:56.410Z,21.99
2018-05-26T03:03:59.196Z,21.99
2018-05-26T03:05:08.027Z,21.98
2018-05-26T03:06:16.770Z,21.96
2018-05-26T03:07:25.683Z,21.94
2018-05-26T03:08:34.895Z,21.93
2018-05-26T03:09:43.797Z,21.91
2018-05-26T03:10:52.652Z,21.90
2018-05-26T03:12:01.605Z,21.89
2018-05-26T03:13:10.479Z,21.89
2018-05-26T03:14:19.402Z,21.88
2018-05-26T03:15:22.171Z,21.87
2018-05-26T03:16:40.375Z,21.87
2018-05-26T03:17:48.141Z,21.84
2018-05-26T03:18:51.479Z,21.83
2018-05-26T03:19:54.834Z,21.83
2018-05-26T03:20:58.179Z,21.83
2018-05-26T03:22:01.502Z,21.84
2018-05-26T03:23:04.853Z,21.83
2018-05-26T03:24:08.175Z,21.83
2018-05-26T03:25:11.519Z,21.82
2018-05-26T03:26:14.853Z,21.83
2018-05-26T03:27:18.188Z,21.82
2018-05-26T03:28:21.572Z,21.82
2018-05-26T03:29:24.875Z,21.81
2018-05-26T03:30:28.240Z,21.80
2018-05-26T03:31:31.553Z,21.80
2018-05-26T03:32:34.890Z,21.80
2018-05-26T03:33:38.199Z,21.79
2018-05-26T03:34:41.517Z,21.79
2018-05-26T03:35:44.870Z,21.78
2018-05-26T03:36:48.198Z,21.78
2018-05-26T03:37:51.533Z,21.78
2018-05-26T03:38:54.868Z,21.78
2018-05-26T03:39:58.227Z,21.77
2018-05-26T03:41:01.750Z,21.77
2018-05-26T03:42:05.077Z,21.77
2018-05-26T03:43:08.392Z,21.77
2018-05-26T03:44:11.732Z,21.76
2018-05-26T03:45:15.337Z,21.75
2018-05-26T03:46:18.735Z,21.75
2018-05-26T03:47:22.060Z,21.75
2018-05-26T03:48:25.513Z,21.75
2018-05-26T03:49:28.844Z,21.75
2018-05-26T03:50:32.178Z,21.75
2018-05-26T03:51:35.568Z,21.75
2018-05-26T03:52:38.900Z,21.75
2018-05-26T03:53:42.238Z,21.75
2018-05-26T03:56:34.238Z,21.69
2018-05-26T03:57:49.455Z,21.68
2018-05-26T03:59:04.502Z,21.66
2018-05-26T04:00:10.583Z,21.63
2018-05-26T04:01:13.946Z,21.64
2018-05-26T04:02:17.282Z,21.63
2018-05-26T04:03:20.630Z,21.63
2018-05-26T04:04:23.958Z,21.63
2018-05-26T04:05:27.278Z,21.63
2018-05-26T04:06:30.823Z,21.61
2018-05-26T04:07:34.183Z,21.62
2018-05-26T04:08:37.494Z,21.61
2018-05-26T04:09:40.823Z,21.62
2018-05-26T04:10:44.161Z,21.62
2018-05-26T04:11:47.497Z,21.61
2018-05-26T04:12:51.059Z,21.62
2018-05-26T04:13:54.477Z,21.62
2018-05-26T04:14:57.807Z,21.63
2018-05-26T04:16:01.130Z,21.63
2018-05-26T04:17:04.476Z,21.63
2018-05-26T04:18:07.795Z,21.63
2018-05-26T04:19:11.151Z,21.64
2018-05-26T04:20:14.484Z,21.63
2018-05-26T04:22:27.518Z,21.62
2018-05-26T04:23:30.866Z,21.62
2018-05-26T04:24:37.754Z,21.61
2018-05-26T04:25:41.104Z,21.61
2018-05-26T04:26:44.419Z,21.62
2018-05-26T04:27:47.772Z,21.61
2018-05-26T04:28:51.083Z,21.61
2018-05-26T04:29:54.438Z,21.61
2018-05-26T04:30:57.751Z,21.61
2018-05-26T04:32:01.113Z,21.61
2018-05-26T04:33:04.461Z,21.62
2018-05-26T04:34:07.786Z,21.62
2018-05-26T04:35:11.146Z,21.62
2018-05-26T04:36:14.482Z,21.62
2018-05-26T04:37:17.839Z,21.62
2018-05-26T04:38:21.157Z,21.63
2018-05-26T04:39:24.497Z,21.63
2018-05-26T04:40:28.226Z,21.64
2018-05-26T04:41:31.864Z,21.64
2018-05-26T04:42:35.182Z,21.66
2018-05-26T04:43:38.510Z,21.67
2018-05-26T04:44:41.844Z,21.68
2018-05-26T04:45:45.459Z,21.69
2018-05-26T04:46:48.808Z,21.70
2018-05-26T04:47:52.134Z,21.71
2018-05-26T04:48:55.459Z,21.72
2018-05-26T04:49:58.780Z,21.72
2018-05-26T04:51:02.167Z,21.73
2018-05-26T04:52:05.482Z,21.73
2018-05-26T04:53:08.831Z,21.74
2018-05-26T04:54:12.140Z,21.75
2018-05-26T04:55:15.558Z,21.76
2018-05-26T04:56:18.907Z,21.76
2018-05-26T04:57:22.252Z,21.77
2018-05-26T04:58:25.593Z,21.78
2018-05-26T04:59:28.954Z,21.78
2018-05-26T05:00:32.308Z,21.79
2018-05-26T05:01:35.646Z,21.80
2018-05-26T05:02:38.974Z,21.81
2018-05-26T05:03:42.300Z,21.82
2018-05-26T05:04:45.645Z,21.84
2018-05-26T05:05:48.975Z,21.85
2018-05-26T05:06:52.334Z,21.86
2018-05-26T05:07:55.707Z,21.88
2018-05-26T05:08:59.026Z,21.89
2018-05-26T05:10:02.356Z,21.91
2018-05-26T05:11:05.683Z,21.93
2018-05-26T05:12:09.045Z,21.95
2018-05-26T05:13:12.372Z,21.99
2018-05-26T05:14:15.703Z,22.08
2018-05-26T05:15:19.030Z,22.29
2018-05-26T05:16:22.356Z,22.57
2018-05-26T05:17:25.710Z,22.87
2018-05-26T05:18:29.023Z,23.17
2018-05-26T05:19:32.361Z,23.46
2018-05-26T05:20:35.690Z,23.76
2018-05-26T05:21:39.021Z,24.04
2018-05-26T05:22:42.388Z,24.32
2018-05-26T05:23:45.696Z,24.59
2018-05-26T05:24:49.023Z,24.84
2018-05-26T05:25:52.361Z,25.10
2018-05-26T05:26:55.690Z,25.33
2018-05-26T05:27:59.051Z,25.56
2018-05-26T05:29:02.362Z,25.77
2018-05-26T05:30:05.705Z,26.00
2018-05-26T05:31:09.010Z,26.21
2018-05-26T05:32:12.566Z,26.40
2018-05-26T05:33:15.908Z,26.57
2018-05-26T05:34:19.244Z,26.74
2018-05-26T05:35:22.615Z,26.88
2018-05-26T05:36:25.935Z,27.04
2018-05-26T05:37:29.308Z,27.21
2018-05-26T05:38:32.757Z,27.36
2018-05-26T05:39:36.074Z,27.50
2018-05-26T05:40:39.492Z,27.66
2018-05-26T05:41:43.466Z,27.82
2018-05-26T05:42:46.788Z,27.97
2018-05-26T05:43:50.151Z,28.13
2018-05-26T05:44:53.471Z,28.28
2018-05-26T05:45:56.785Z,28.43
2018-05-26T05:47:00.152Z,28.56
2018-05-26T05:48:03.471Z,28.69
2018-05-26T05:49:06.834Z,28.77
2018-05-26T05:50:10.152Z,28.86
2018-05-26T05:51:13.609Z,28.99
2018-05-26T05:52:16.938Z,29.10
2018-05-26T05:53:20.256Z,29.24
2018-05-26T05:54:23.622Z,29.38
2018-05-26T05:55:26.955Z,29.49
2018-05-26T05:56:30.283Z,29.60
2018-05-26T05:57:33.606Z,29.70
2018-05-26T05:58:36.927Z,29.79
2018-05-26T05:59:40.277Z,29.89
2018-05-26T06:00:43.587Z,30.00
2018-05-26T06:01:46.952Z,30.12
2018-05-26T06:02:50.266Z,30.23
2018-05-26T06:03:53.582Z,30.34
2018-05-26T06:04:56.920Z,30.44
2018-05-26T06:06:00.234Z,30.56
2018-05-26T06:07:03.555Z,30.66
2018-05-26T06:08:06.874Z,30.73
2018-05-26T06:09:10.174Z,30.79
2018-05-26T06:10:13.507Z,30.83
2018-05-26T06:11:16.830Z,30.90
2018-05-26T06:12:20.243Z,30.99
2018-05-26T06:13:23.585Z,31.06
2018-05-26T06:14:26.914Z,31.12
2018-05-26T06:15:30.288Z,31.18
2018-05-26T06:16:33.613Z,31.29
2018-05-26T06:17:36.939Z,31.41
2018-05-26T06:18:40.272Z,31.53
2018-05-26T06:19:43.651Z,31.63
2018-05-26T06:20:47.065Z,31.73
2018-05-26T06:21:50.382Z,31.80
2018-05-26T06:22:53.699Z,31.86
2018-05-26T06:23:57.035Z,31.94
2018-05-26T06:25:00.362Z,32.01
2018-05-26T06:26:03.724Z,32.09
2018-05-26T06:27:07.046Z,32.18
2018-05-26T06:28:10.364Z,32.28
2018-05-26T06:29:13.691Z,32.35
2018-05-26T06:30:16.989Z,32.38
2018-05-26T06:31:20.324Z,32.42
2018-05-26T06:32:23.653Z,32.47
2018-05-26T06:33:26.967Z,32.50
2018-05-26T06:34:30.275Z,32.54
2018-05-26T06:35:33.584Z,32.61
2018-05-26T06:36:36.964Z,32.69
2018-05-26T06:37:40.285Z,32.74
2018-05-26T06:38:43.588Z,32.80
2018-05-26T06:39:46.906Z,32.84
2018-05-26T06:40:50.279Z,32.87
2018-05-26T06:41:53.930Z,32.91
2018-05-26T06:42:57.313Z,32.98
2018-05-26T06:44:00.658Z,33.07
2018-05-26T06:45:03.957Z,33.16
2018-05-26T06:46:07.299Z,33.27
2018-05-26T06:47:10.664Z,33.39
2018-05-26T06:48:14.009Z,33.48
2018-05-26T06:49:17.330Z,33.59
2018-05-26T06:50:20.686Z,33.68
2018-05-26T06:51:24.041Z,33.76
2018-05-26T06:52:27.337Z,33.83
2018-05-26T06:53:30.626Z,33.91
2018-05-26T06:54:33.950Z,33.98
2018-05-26T06:55:37.262Z,34.06
2018-05-26T06:56:40.573Z,34.15
2018-05-26T06:57:44.007Z,34.20
2018-05-26T06:58:47.319Z,34.24
2018-05-26T06:59:50.623Z,34.27
2018-05-26T07:00:54.164Z,34.28
2018-05-26T07:01:57.479Z,34.34
2018-05-26T07:03:00.838Z,34.39
2018-05-26T07:04:04.143Z,34.45
2018-05-26T07:05:07.456Z,34.51
2018-05-26T07:06:10.851Z,34.59
2018-05-26T07:07:14.150Z,34.63
2018-05-26T07:08:17.480Z,34.65
2018-05-26T07:09:20.791Z,34.61
2018-05-26T07:10:24.131Z,34.45
2018-05-26T07:11:27.456Z,34.26
2018-05-26T07:12:30.764Z,34.05
2018-05-26T07:13:34.150Z,33.90
2018-05-26T07:14:37.476Z,33.77
2018-05-26T07:15:40.902Z,33.69
2018-05-26T07:16:44.207Z,33.66
2018-05-26T07:17:47.531Z,33.67
2018-05-26T07:18:50.927Z,33.70
2018-05-26T07:19:54.230Z,33.77
2018-05-26T07:20:57.587Z,33.85
2018-05-26T07:22:00.928Z,33.95
2018-05-26T07:23:04.229Z,33.99
2018-05-26T07:24:07.563Z,33.99
2018-05-26T07:25:10.866Z,34.00
2018-05-26T07:26:14.170Z,34.04
2018-05-26T07:27:17.500Z,34.12
2018-05-26T07:28:21.007Z,34.18
2018-05-26T07:29:24.430Z,34.24
2018-05-26T07:30:27.718Z,34.27
2018-05-26T07:31:31.045Z,34.27
2018-05-26T07:32:34.383Z,34.21
2018-05-26T07:33:37.709Z,34.04
2018-05-26T07:34:41.110Z,33.84
2018-05-26T07:35:44.470Z,33.63
2018-05-26T07:36:47.777Z,33.42
2018-05-26T07:37:51.075Z,33.21
2018-05-26T07:38:54.392Z,33.01
2018-05-26T07:39:57.711Z,32.80
2018-05-26T07:41:01.088Z,32.61
2018-05-26T07:42:04.950Z,32.44
2018-05-26T07:43:08.472Z,32.28
2018-05-26T07:44:11.766Z,32.12
2018-05-26T07:45:15.323Z,31.98
2018-05-26T07:46:18.760Z,31.83
2018-05-26T07:47:22.066Z,31.71
2018-05-26T07:48:25.410Z,31.57
2018-05-26T07:49:28.724Z,31.40
2018-05-26T07:50:32.159Z,31.24
2018-05-26T07:51:35.476Z,31.09
2018-05-26T07:52:38.798Z,30.95
2018-05-26T07:53:42.121Z,30.87
2018-05-26T07:54:45.461Z,30.84
2018-05-26T07:55:49.008Z,30.82
2018-05-26T07:56:52.323Z,30.78
2018-05-26T07:57:55.682Z,30.77
2018-05-26T07:58:59.009Z,30.76
2018-05-26T08:00:02.324Z,30.73
2018-05-26T08:01:05.905Z,30.69
2018-05-26T08:02:09.219Z,30.65
2018-05-26T08:03:12.567Z,30.61
2018-05-26T08:04:15.889Z,30.55
2018-05-26T08:05:19.190Z,30.48
2018-05-26T08:06:22.617Z,30.36
2018-05-26T08:07:25.923Z,30.25
2018-05-26T08:08:29.247Z,30.15
2018-05-26T08:09:32.579Z,30.06
2018-05-26T08:10:35.870Z,29.97
2018-05-26T08:11:39.195Z,29.89
2018-05-26T08:12:42.503Z,29.83
2018-05-26T08:13:45.821Z,29.79
2018-05-26T08:14:49.141Z,29.77
2018-05-26T08:15:52.460Z,29.76
2018-05-26T08:16:55.794Z,29.71
2018-05-26T08:17:59.144Z,29.68
2018-05-26T08:19:02.438Z,29.64
2018-05-26T08:20:05.736Z,29.61
2018-05-26T08:21:09.051Z,29.62
2018-05-26T08:22:12.463Z,29.70
2018-05-26T08:23:15.759Z,29.84
2018-05-26T08:24:19.062Z,30.01
2018-05-26T08:25:22.379Z,30.20
2018-05-26T08:26:25.718Z,30.37
2018-05-26T08:27:29.067Z,30.53
2018-05-26T08:28:32.381Z,30.66
2018-05-26T08:29:35.698Z,30.74
2018-05-26T08:30:39.036Z,30.77
2018-05-26T08:31:42.350Z,30.75
2018-05-26T08:32:45.706Z,30.68
2018-05-26T08:33:49.095Z,30.62
2018-05-26T08:34:52.379Z,30.55
2018-05-26T08:35:55.941Z,30.48
2018-05-26T08:36:59.258Z,30.38
2018-05-26T08:38:02.585Z,30.30
2018-05-26T08:39:06.006Z,30.23
2018-05-26T08:40:09.354Z,30.18
2018-05-26T08:41:12.724Z,30.16
2018-05-26T08:42:16.207Z,30.13
2018-05-26T08:43:19.565Z,30.09
2018-05-26T08:44:22.874Z,30.04
2018-05-26T08:45:26.215Z,29.98
2018-05-26T08:46:29.516Z,29.91
2018-05-26T08:47:32.826Z,29.85
2018-05-26T08:48:36.215Z,29.81
2018-05-26T08:49:39.529Z,29.77
2018-05-26T08:50:42.842Z,29.73
2018-05-26T08:51:46.154Z,29.69
2018-05-26T08:52:49.485Z,29.63
2018-05-26T08:53:53.104Z,29.57
2018-05-26T08:54:56.497Z,29.53
2018-05-26T08:55:59.730Z,29.51
2018-05-26T08:57:03.090Z,29.50
2018-05-26T08:58:06.385Z,29.48
2018-05-26T08:59:09.920Z,29.47
2018-05-26T09:00:13.247Z,29.45
2018-05-26T09:01:16.555Z,29.45
2018-05-26T09:02:19.940Z,29.41
2018-05-26T09:03:23.213Z,29.38
2018-05-26T09:04:26.551Z,29.34
2018-05-26T09:05:29.875Z,29.31
2018-05-26T09:06:33.185Z,29.30
2018-05-26T09:07:36.501Z,29.27
2018-05-26T09:08:39.825Z,29.24
2018-05-26T09:09:43.154Z,29.22
2018-05-26T09:10:46.471Z,29.21
2018-05-26T09:11:49.789Z,29.23
2018-05-26T09:12:53.134Z,29.23
2018-05-26T09:13:56.451Z,29.24
2018-05-26T09:15:00.032Z,29.25
2018-05-26T09:16:03.295Z,29.25
2018-05-26T09:17:06.627Z,29.27
2018-05-26T09:18:10.550Z,29.30
2018-05-26T09:19:13.877Z,29.31
2018-05-26T09:20:17.249Z,29.33
2018-05-26T09:21:20.562Z,29.35
2018-05-26T09:22:23.868Z,29.36
2018-05-26T09:23:27.176Z,29.35
2018-05-26T09:24:30.487Z,29.35
2018-05-26T09:25:33.900Z,29.34
2018-05-26T09:26:37.171Z,29.35
2018-05-26T09:27:40.516Z,29.36
2018-05-26T09:28:44.077Z,29.37
2018-05-26T09:29:47.386Z,29.38
2018-05-26T09:30:50.847Z,29.40
2018-05-26T09:31:54.259Z,29.40
2018-05-26T09:32:57.566Z,29.41
2018-05-26T09:34:00.891Z,29.40
2018-05-26T09:35:04.232Z,29.39
2018-05-26T09:36:07.551Z,29.37
2018-05-26T09:37:10.936Z,29.33
2018-05-26T09:38:14.315Z,29.31
2018-05-26T09:39:17.696Z,29.30
2018-05-26T09:40:21.002Z,29.30
2018-05-26T09:41:24.398Z,29.30
2018-05-26T09:42:28.035Z,29.29
2018-05-26T09:43:31.366Z,29.29
2018-05-26T09:44:34.715Z,29.27
2018-05-26T09:45:38.047Z,29.23
2018-05-26T09:46:41.401Z,29.20
2018-05-26T09:47:44.695Z,29.16
2018-05-26T09:48:47.994Z,29.11
2018-05-26T09:49:51.335Z,29.06
2018-05-26T09:50:54.651Z,29.01
2018-05-26T09:51:57.992Z,28.96
2018-05-26T09:53:01.316Z,28.92
2018-05-26T09:54:04.642Z,28.90
2018-05-26T09:55:07.946Z,28.89
2018-05-26T09:56:11.264Z,28.86
2018-05-26T09:57:14.602Z,28.82
2018-05-26T09:58:17.917Z,28.77
2018-05-26T09:59:21.222Z,28.74
2018-05-26T10:00:24.678Z,28.73
2018-05-26T10:01:28.003Z,28.72
2018-05-26T10:02:31.375Z,28.70
2018-05-26T10:03:34.708Z,28.66
2018-05-26T10:04:38.652Z,28.63
2018-05-26T10:05:41.942Z,28.61
2018-05-26T10:06:45.263Z,28.63
2018-05-26T10:07:48.624Z,28.65
2018-05-26T10:08:51.926Z,28.67
2018-05-26T10:09:55.227Z,28.67
2018-05-26T10:10:58.574Z,28.67
2018-05-26T10:12:01.873Z,28.66
2018-05-26T10:13:05.204Z,28.67
2018-05-26T10:14:08.505Z,28.67
2018-05-26T10:15:11.812Z,28.67
2018-05-26T10:16:15.125Z,28.67
2018-05-26T10:17:18.482Z,28.68
2018-05-26T10:18:21.856Z,28.69
2018-05-26T10:19:25.302Z,28.71
2018-05-26T10:20:28.782Z,28.73
2018-05-26T10:21:32.093Z,28.75
2018-05-26T10:22:35.410Z,28.77
2018-05-26T10:23:39.035Z,28.79
2018-05-26T10:24:42.333Z,28.81
2018-05-26T10:25:45.642Z,28.83
2018-05-26T10:26:49.005Z,28.85
2018-05-26T10:27:52.332Z,28.87
2018-05-26T10:28:56.087Z,28.88
2018-05-26T10:29:59.473Z,28.90
2018-05-26T10:31:02.807Z,28.92
2018-05-26T10:32:06.185Z,28.93
2018-05-26T10:33:09.478Z,28.94
2018-05-26T10:34:12.891Z,28.95
2018-05-26T10:35:16.261Z,28.97
2018-05-26T10:36:19.578Z,28.99
2018-05-26T10:37:22.905Z,28.99
2018-05-26T10:38:26.226Z,28.95
2018-05-26T10:39:29.588Z,28.92
2018-05-26T10:40:32.902Z,28.90
2018-05-26T10:41:36.249Z,28.90
2018-05-26T10:42:40.666Z,28.89
2018-05-26T10:43:43.978Z,28.88
2018-05-26T10:44:47.421Z,28.86
2018-05-26T10:46:02.398Z,28.86
2018-05-26T10:47:05.765Z,28.86
2018-05-26T10:48:09.042Z,28.87
2018-05-26T10:49:12.347Z,28.90
2018-05-26T10:50:15.962Z,28.92
2018-05-26T10:51:19.251Z,28.95
2018-05-26T10:52:22.596Z,28.96
2018-05-26T10:53:25.895Z,28.98
2018-05-26T10:54:29.471Z,28.99
2018-05-26T10:55:32.853Z,29.01
2018-05-26T10:56:36.163Z,29.02
2018-05-26T10:57:39.463Z,29.04
2018-05-26T10:58:42.765Z,29.06
2018-05-26T10:59:46.071Z,29.07
2018-05-26T11:00:49.419Z,29.08
2018-05-26T11:01:52.727Z,29.10
2018-05-26T11:02:56.034Z,29.11
2018-05-26T11:03:59.374Z,29.11
2018-05-26T11:05:02.769Z,29.11
2018-05-26T11:06:06.442Z,29.10
2018-05-26T11:07:09.751Z,29.11
2018-05-26T11:08:13.066Z,29.12
2018-05-26T11:09:16.397Z,29.13
2018-05-26T11:10:19.726Z,29.14
2018-05-26T11:11:23.062Z,29.15
2018-05-26T11:12:26.379Z,29.16
2018-05-26T11:13:29.743Z,29.18
2018-05-26T11:14:33.134Z,29.18
2018-05-26T11:15:36.484Z,29.19
2018-05-26T11:16:39.833Z,29.20
2018-05-26T11:17:43.426Z,29.20
2018-05-26T11:18:46.532Z,29.21
2018-05-26T11:19:49.839Z,29.20
2018-05-26T11:20:53.195Z,29.21
2018-05-26T11:21:56.545Z,29.21
2018-05-26T11:22:59.851Z,29.22
2018-05-26T11:24:03.384Z,29.24
2018-05-26T11:25:06.503Z,29.26
2018-05-26T11:26:09.832Z,29.28
2018-05-26T11:27:13.179Z,29.29
2018-05-26T11:28:16.826Z,29.31
2018-05-26T11:29:20.138Z,29.34
2018-05-26T11:30:23.455Z,29.35
2018-05-26T11:31:26.754Z,29.38
2018-05-26T11:32:30.092Z,29.39
2018-05-26T11:33:33.419Z,29.41
2018-05-26T11:34:36.730Z,29.41
2018-05-26T11:35:40.043Z,29.42
2018-05-26T11:36:43.341Z,29.43
2018-05-26T11:37:46.684Z,29.43
2018-05-26T11:38:49.993Z,29.43
2018-05-26T11:39:53.322Z,29.42
2018-05-26T11:40:56.627Z,29.41
2018-05-26T11:41:59.933Z,29.40
2018-05-26T11:43:03.467Z,29.41
2018-05-26T11:44:06.763Z,29.40
2018-05-26T11:45:10.107Z,29.41
2018-05-26T11:46:13.417Z,29.40
2018-05-26T11:47:16.746Z,29.41
2018-05-26T11:48:20.308Z,29.42
2018-05-26T11:49:23.604Z,29.41
2018-05-26T11:50:26.908Z,29.43
2018-05-26T11:51:30.228Z,29.43
2018-05-26T11:52:33.567Z,29.44
2018-05-26T11:53:36.875Z,29.46
2018-05-26T11:54:40.256Z,29.48
2018-05-26T11:55:43.639Z,29.51
2018-05-26T11:56:46.961Z,29.54
2018-05-26T11:57:50.286Z,29.57
2018-05-26T11:58:53.606Z,29.61
2018-05-26T11:59:56.942Z,29.64
2018-05-26T12:01:00.243Z,29.67
2018-05-26T12:02:03.611Z,29.69
2018-05-26T12:03:06.990Z,29.71
2018-05-26T12:04:10.319Z,29.73
2018-05-26T12:05:13.623Z,29.74
2018-05-26T12:06:16.922Z,29.73
2018-05-26T12:07:20.256Z,29.73
2018-05-26T12:08:23.558Z,29.73
2018-05-26T12:09:27.002Z,29.73
2018-05-26T12:10:30.310Z,29.74
2018-05-26T12:11:33.615Z,29.75
2018-05-26T12:12:36.953Z,29.75
2018-05-26T12:13:40.294Z,29.76
2018-05-26T12:14:43.907Z,29.78
2018-05-26T12:15:47.219Z,29.80
2018-05-26T12:16:50.543Z,29.82
2018-05-26T12:17:53.850Z,29.84
2018-05-26T12:18:57.170Z,29.84
2018-05-26T12:20:00.535Z,29.84
2018-05-26T12:21:03.837Z,29.84
2018-05-26T12:22:07.169Z,29.83
2018-05-26T12:23:10.504Z,29.80
2018-05-26T12:24:13.850Z,29.78
2018-05-26T12:25:17.189Z,29.76
2018-05-26T12:26:20.533Z,29.75
2018-05-26T12:27:23.853Z,29.74
2018-05-26T12:28:27.164Z,29.73
2018-05-26T12:29:30.461Z,29.70
2018-05-26T12:30:33.820Z,29.68
2018-05-26T12:31:37.110Z,29.67
2018-05-26T12:32:40.476Z,29.67
2018-05-26T12:33:43.793Z,29.68
2018-05-26T12:34:47.088Z,29.69
2018-05-26T12:35:50.474Z,29.69
2018-05-26T12:36:53.757Z,29.70
2018-05-26T12:37:57.079Z,29.72
2018-05-26T12:39:00.607Z,29.75
2018-05-26T12:40:04.016Z,29.77
2018-05-26T12:41:07.393Z,29.78
2018-05-26T12:42:10.715Z,29.80
2018-05-26T12:43:14.140Z,29.82
2018-05-26T12:44:17.475Z,29.83
2018-05-26T12:45:20.840Z,29.84
2018-05-26T12:46:24.334Z,29.85
2018-05-26T12:47:27.679Z,29.86
2018-05-26T12:48:30.987Z,29.88
2018-05-26T12:49:34.300Z,29.90
2018-05-26T12:50:37.637Z,29.94
2018-05-26T12:51:40.994Z,29.99
2018-05-26T12:52:44.317Z,30.03
2018-05-26T12:53:47.665Z,30.08
2018-05-26T12:54:50.999Z,30.12
2018-05-26T12:55:54.306Z,30.18
2018-05-26T12:56:57.747Z,30.23
2018-05-26T12:58:01.067Z,30.29
2018-05-26T12:59:04.358Z,30.33
2018-05-26T13:00:07.702Z,30.37
2018-05-26T13:01:11.001Z,30.42
2018-05-26T13:02:14.323Z,30.45
2018-05-26T13:03:17.652Z,30.50
2018-05-26T13:04:20.983Z,30.54
2018-05-26T13:05:24.303Z,30.58
2018-05-26T13:06:27.611Z,30.61
2018-05-26T13:07:31.247Z,30.65
2018-05-26T13:08:34.574Z,30.67
2018-05-26T13:09:37.898Z,30.69
2018-05-26T13:10:41.214Z,30.70
2018-05-26T13:11:44.511Z,30.69
2018-05-26T13:12:47.849Z,30.69
2018-05-26T13:13:51.203Z,30.67
2018-05-26T13:14:54.501Z,30.65
2018-05-26T13:15:57.830Z,30.63
2018-05-26T13:17:01.222Z,30.63
2018-05-26T13:18:04.561Z,30.63
2018-05-26T13:19:07.886Z,30.64
2018-05-26T13:20:11.192Z,30.64
2018-05-26T13:22:24.184Z,30.64
2018-05-26T13:23:27.522Z,30.63
2018-05-26T13:24:30.822Z,30.62
2018-05-26T13:25:34.143Z,30.60
2018-05-26T13:26:37.459Z,30.59
2018-05-26T13:27:40.792Z,30.57
2018-05-26T13:28:44.139Z,30.55
2018-05-26T13:29:47.498Z,30.54
2018-05-26T13:30:50.791Z,30.52
2018-05-26T13:31:54.122Z,30.52
2018-05-26T13:32:57.440Z,30.50
2018-05-26T13:34:00.766Z,30.51
2018-05-26T13:35:04.070Z,30.51
2018-05-26T13:36:07.390Z,30.52
2018-05-26T13:37:10.719Z,30.53
2018-05-26T13:38:14.028Z,30.55
2018-05-26T13:39:17.387Z,30.59
2018-05-26T13:40:20.704Z,30.61
2018-05-26T13:42:33.658Z,30.67